createdAt,value
2018-01-12T00:01:57.984Z,4.80
2018-01-12T00:04:24.086Z,4.60
2018-01-12T00:06:50.330Z,5.53
2018-01-12T00:09:16.413Z,6.60
2018-01-12T00:11:42.536Z,8.00
2018-01-12T00:14:08.784Z,10.37
2018-01-12T00:16:34.961Z,9.93
2018-01-12T00:19:01.050Z,9.77
2018-01-12T00:21:27.148Z,6.13
2018-01-12T00:23:53.268Z,6.40
2018-01-12T00:26:20.409Z,7.43
2018-01-12T00:28:46.478Z,9.33
2018-01-12T00:31:12.576Z,8.63
2018-01-12T00:33:38.788Z,9.33
2018-01-12T00:36:04.965Z,7.23
2018-01-12T00:38:31.057Z,6.60
2018-01-12T00:40:57.312Z,8.57
2018-01-12T00:43:23.505Z,8.33
2018-01-12T00:45:50.655Z,6.67
2018-01-12T00:48:16.816Z,7.27
2018-01-12T00:50:43.044Z,6.40
2018-01-12T00:53:09.205Z,7.03
2018-01-12T00:55:35.462Z,9.90
2018-01-12T00:58:01.737Z,8.77
2018-01-12T01:00:27.832Z,7.33
2018-01-12T01:02:53.976Z,8.50
2018-01-12T01:05:20.041Z,6.60
2018-01-12T01:07:46.136Z,5.47
2018-01-12T01:10:12.545Z,4.37
2018-01-12T01:12:38.745Z,6.73
2018-01-12T01:15:05.031Z,10.03
2018-01-12T01:17:31.201Z,6.73
2018-01-12T01:19:57.306Z,7.23
2018-01-12T01:22:23.510Z,7.53
2018-01-12T01:24:49.725Z,6.37
2018-01-12T01:27:15.970Z,4.37
2018-01-12T01:29:42.036Z,5.57
2018-01-12T01:32:08.266Z,6.23
2018-01-12T01:34:34.373Z,5.80
2018-01-12T01:37:00.512Z,6.17
2018-01-12T01:39:26.605Z,7.43
2018-01-12T01:41:52.697Z,9.77
2018-01-12T01:44:18.941Z,6.03
2018-01-12T01:46:45.197Z,8.03
2018-01-12T01:49:11.292Z,6.40
2018-01-12T01:51:37.440Z,7.07
2018-01-12T01:54:03.586Z,5.90
2018-01-12T01:56:29.800Z,5.80
2018-01-12T01:58:56.032Z,4.90
2018-01-12T02:01:22.157Z,5.13
2018-01-12T02:03:48.384Z,6.77
2018-01-12T02:06:15.489Z,7.70
2018-01-12T02:08:41.708Z,7.80
2018-01-12T02:11:07.900Z,5.27
2018-01-12T02:13:34.036Z,4.70
2018-01-12T02:16:00.188Z,3.93
2018-01-12T02:18:26.449Z,3.70
2018-01-12T02:20:52.565Z,4.73
2018-01-12T02:23:18.682Z,5.20
2018-01-12T02:25:45.841Z,6.03
2018-01-12T02:28:12.060Z,3.57
2018-01-12T02:30:38.154Z,3.20
2018-01-12T02:33:04.393Z,3.30
2018-01-12T02:35:31.520Z,3.47
2018-01-12T02:37:57.577Z,4.40
2018-01-12T02:40:23.762Z,2.30
2018-01-12T02:42:50.197Z,3.10
2018-01-12T02:45:16.422Z,1.90
2018-01-12T02:47:42.668Z,1.97
2018-01-12T02:50:08.821Z,2.17
2018-01-12T02:52:35.001Z,2.50
2018-01-12T02:55:01.092Z,3.40
2018-01-12T02:57:27.169Z,2.00
2018-01-12T02:59:53.273Z,2.00
2018-01-12T03:02:19.421Z,2.40
2018-01-12T03:04:45.525Z,2.10
2018-01-12T03:07:11.577Z,2.40
2018-01-12T03:09:37.664Z,2.37
2018-01-12T03:12:03.820Z,2.60
2018-01-12T03:14:29.913Z,2.57
2018-01-12T03:16:56.037Z,2.50
2018-01-12T03:19:22.124Z,2.90
2018-01-12T03:21:48.281Z,2.53
2018-01-12T03:24:14.373Z,2.90
2018-01-12T03:26:40.488Z,3.70
2018-01-12T03:29:06.705Z,2.30
2018-01-12T03:31:32.940Z,2.97
2018-01-12T03:33:59.146Z,3.70
2018-01-12T03:36:25.329Z,4.00
2018-01-12T03:38:51.468Z,4.17
2018-01-12T03:41:17.581Z,3.90
2018-01-12T03:43:43.754Z,3.57
2018-01-12T03:46:09.770Z,3.77
2018-01-12T03:48:36.029Z,4.17
2018-01-12T03:51:02.157Z,3.83
2018-01-12T03:53:28.321Z,4.50
2018-01-12T03:55:54.589Z,5.33
2018-01-12T03:58:20.845Z,3.47
2018-01-12T04:00:46.936Z,3.37
2018-01-12T04:03:13.065Z,4.20
2018-01-12T04:05:39.229Z,4.10
2018-01-12T04:08:05.428Z,4.73
2018-01-12T04:10:31.665Z,3.93
2018-01-12T04:12:57.874Z,4.47
2018-01-12T04:15:24.928Z,3.93
2018-01-12T04:17:51.101Z,3.40
2018-01-12T04:20:17.169Z,3.70
2018-01-12T04:22:43.325Z,3.80
2018-01-12T04:25:09.588Z,4.03
2018-01-12T04:27:35.782Z,3.70
2018-01-12T04:30:02.011Z,3.47
2018-01-12T04:32:28.244Z,3.10
2018-01-12T04:34:55.337Z,3.43
2018-01-12T04:37:21.549Z,2.97
2018-01-12T04:39:47.628Z,3.50
2018-01-12T04:42:13.901Z,3.33
2018-01-12T04:44:40.097Z,4.03
2018-01-12T04:47:06.321Z,3.80
2018-01-12T04:49:32.385Z,3.10
2018-01-12T04:51:58.573Z,3.27
2018-01-12T04:54:25.704Z,4.00
2018-01-12T04:56:51.958Z,3.53
2018-01-12T04:59:18.103Z,4.33
2018-01-12T05:01:44.177Z,3.40
2018-01-12T05:04:10.278Z,4.10
2018-01-12T05:06:36.484Z,3.57
2018-01-12T05:09:02.735Z,3.83
2018-01-12T05:11:28.961Z,3.47
2018-01-12T05:13:55.178Z,8.70
2018-01-12T05:16:21.322Z,3.63
2018-01-12T05:18:47.577Z,3.80
2018-01-12T05:21:13.780Z,3.47
2018-01-12T05:23:40.009Z,4.73
2018-01-12T05:26:06.257Z,4.60
2018-01-12T05:28:32.317Z,5.77
2018-01-12T05:30:58.573Z,5.23
2018-01-12T05:33:24.716Z,3.30
2018-01-12T05:35:50.857Z,4.63
2018-01-12T05:38:17.125Z,3.80
2018-01-12T05:40:43.406Z,3.83
2018-01-12T05:43:09.500Z,3.80
2018-01-12T05:45:35.732Z,4.10
2018-01-12T05:48:01.816Z,3.40
2018-01-12T05:50:27.985Z,3.77
2018-01-12T05:52:54.243Z,3.57
2018-01-12T05:55:20.341Z,4.67
2018-01-12T05:57:46.433Z,4.07
2018-01-12T06:00:12.573Z,3.13
2018-01-12T06:02:44.757Z,3.67
2018-01-12T06:05:16.740Z,2.97
2018-01-12T06:07:42.826Z,3.80
2018-01-12T06:10:09.053Z,3.60
2018-01-12T06:12:35.306Z,2.90
2018-01-12T06:15:01.401Z,4.00
2018-01-12T06:17:27.641Z,3.90
2018-01-12T06:19:53.773Z,4.30
2018-01-12T06:22:19.873Z,3.87
2018-01-12T06:24:46.010Z,3.87
2018-01-12T06:27:12.189Z,3.73
2018-01-12T06:29:38.293Z,4.50
2018-01-12T06:32:04.381Z,5.37
2018-01-12T06:34:30.485Z,5.40
2018-01-12T06:36:56.549Z,6.27
2018-01-12T06:39:22.792Z,4.83
2018-01-12T06:41:48.878Z,5.70
2018-01-12T06:44:15.037Z,5.83
2018-01-12T06:46:41.161Z,5.27
2018-01-12T06:49:07.359Z,5.10
2018-01-12T06:51:33.363Z,10.50
2018-01-12T06:53:59.513Z,6.57
2018-01-12T06:56:25.689Z,5.60
2018-01-12T06:58:51.916Z,6.80
2018-01-12T07:01:18.220Z,6.23
2018-01-12T07:03:44.422Z,6.20
2018-01-12T07:06:10.526Z,5.73
2018-01-12T07:08:36.724Z,6.03
2018-01-12T07:11:02.886Z,7.90
2018-01-12T07:13:29.113Z,7.77
2018-01-12T07:15:55.204Z,7.30
2018-01-12T07:18:21.509Z,5.47
2018-01-12T07:20:53.577Z,5.97
2018-01-12T07:23:25.521Z,7.23
2018-01-12T07:25:51.697Z,6.73
2018-01-12T07:28:17.955Z,7.77
2018-01-12T07:30:43.977Z,4.93
2018-01-12T07:33:10.169Z,4.93
2018-01-12T07:35:36.298Z,4.93
2018-01-12T07:38:02.644Z,7.03
2018-01-12T07:40:28.849Z,6.13
2018-01-12T07:42:55.011Z,6.90
2018-01-12T07:45:21.204Z,12.27
2018-01-12T07:47:47.389Z,7.20
2018-01-12T07:50:13.630Z,6.87
2018-01-12T07:52:45.920Z,5.33
2018-01-12T07:55:12.162Z,5.93
2018-01-12T07:57:38.369Z,6.50
2018-01-12T08:00:04.362Z,5.97
2018-01-12T08:02:36.525Z,7.80
2018-01-12T08:05:02.664Z,7.00
2018-01-12T08:07:28.893Z,6.60
2018-01-12T08:09:55.081Z,8.77
2018-01-12T08:12:21.296Z,5.97
2018-01-12T08:14:47.458Z,7.60
2018-01-12T08:17:13.645Z,7.93
2018-01-12T08:19:39.891Z,6.60
2018-01-12T08:22:06.053Z,6.53
2018-01-12T08:24:33.248Z,7.40
2018-01-12T08:26:59.602Z,4.00
2018-01-12T08:29:25.710Z,5.17
2018-01-12T08:31:51.857Z,5.40
2018-01-12T08:34:18.032Z,4.90
2018-01-12T08:36:44.121Z,4.27
2018-01-12T08:39:10.288Z,6.57
2018-01-12T08:41:36.382Z,10.03
2018-01-12T08:44:03.532Z,13.67
2018-01-12T08:46:29.737Z,8.97
2018-01-12T08:48:55.846Z,8.33
2018-01-12T08:51:22.020Z,7.13
2018-01-12T08:53:48.173Z,5.87
2018-01-12T08:56:14.401Z,6.10
2018-01-12T08:58:40.553Z,4.23
2018-01-12T09:01:06.715Z,6.00
2018-01-12T09:03:32.945Z,8.47
2018-01-12T09:05:59.560Z,7.80
2018-01-12T09:08:25.698Z,9.00
2018-01-12T09:10:51.822Z,7.97
2018-01-12T09:13:37.745Z,9.47
2018-01-12T09:16:05.825Z,10.87
2018-01-12T09:18:31.972Z,8.97
2018-01-12T09:20:58.137Z,8.83
2018-01-12T09:23:28.271Z,9.37
2018-01-12T09:25:54.503Z,9.00
2018-01-12T09:28:20.750Z,6.77
2018-01-12T09:30:46.897Z,7.20
2018-01-12T09:33:13.116Z,9.70
2018-01-12T09:35:51.509Z,4.87
2018-01-12T09:38:19.668Z,6.97
2018-01-12T09:40:46.013Z,5.37
2018-01-12T09:43:12.172Z,4.90
2018-01-12T09:48:25.762Z,3.70
2018-01-12T09:50:51.978Z,8.63
2018-01-12T09:53:18.220Z,9.23
2018-01-12T10:04:12.440Z,7.63
2018-01-12T10:06:38.608Z,11.57
2018-01-12T10:09:04.791Z,7.40
2018-01-12T10:11:30.952Z,8.67
2018-01-12T10:30:47.696Z,13.07
2018-01-12T10:33:16.607Z,14.67
2018-01-12T10:35:48.709Z,10.07
2018-01-12T10:38:14.965Z,24.70
2018-01-12T10:40:47.121Z,21.27
2018-01-12T10:43:13.229Z,15.90
2018-01-12T10:48:41.860Z,12.80
2018-01-12T10:51:13.092Z,15.67
2018-01-12T10:56:30.675Z,8.70
2018-01-12T10:58:56.837Z,10.80
2018-01-12T11:01:23.117Z,10.50
2018-01-12T11:04:07.204Z,17.67
2018-01-12T11:06:33.318Z,12.10
2018-01-12T11:09:00.045Z,11.20
2018-01-12T11:11:26.284Z,10.10
2018-01-12T11:27:54.333Z,10.67
2018-01-12T11:30:21.105Z,9.40
2018-01-12T11:32:47.174Z,10.70
2018-01-12T11:37:58.953Z,7.53
2018-01-12T11:40:25.126Z,7.47
2018-01-12T11:42:51.279Z,7.80
2018-01-12T11:56:33.161Z,13.67
2018-01-12T11:58:59.372Z,7.77
2018-01-12T12:01:25.482Z,7.00
2018-01-12T12:17:55.766Z,10.70
2018-01-12T12:20:22.410Z,11.53
2018-01-12T12:22:48.510Z,13.57
2018-01-12T12:33:38.393Z,9.77
2018-01-12T12:36:04.832Z,9.40
2018-01-12T12:38:31.041Z,12.43
2018-01-12T12:40:57.265Z,8.63
2018-01-12T12:43:23.392Z,8.63
2018-01-12T12:45:49.629Z,9.50
2018-01-12T12:48:16.004Z,6.67
2018-01-12T12:50:42.102Z,9.30
2018-01-12T12:53:11.760Z,7.37
2018-01-12T12:55:37.968Z,6.67
2018-01-12T12:58:04.117Z,6.93
2018-01-12T13:00:30.741Z,7.10
2018-01-12T13:02:56.903Z,11.23
2018-01-12T13:05:23.121Z,9.73
2018-01-12T13:07:49.308Z,11.80
2018-01-12T13:10:15.380Z,9.83
2018-01-12T13:12:41.537Z,10.93
2018-01-12T13:17:59.967Z,10.53
2018-01-12T13:20:26.209Z,12.87
2018-01-12T13:22:52.445Z,11.90
2018-01-12T13:25:18.581Z,9.20
2018-01-12T13:27:44.670Z,9.57
2018-01-12T13:30:10.733Z,15.53
2018-01-12T13:32:37.005Z,24.57
2018-01-12T13:35:13.841Z,21.77
2018-01-12T13:37:40.070Z,16.90
2018-01-12T13:40:06.297Z,13.43
2018-01-12T13:42:32.396Z,8.63
2018-01-12T13:48:00.545Z,10.53
2018-01-12T13:50:26.753Z,10.07
2018-01-12T13:52:52.820Z,12.37
2018-01-12T13:55:19.029Z,10.50
2018-01-12T13:57:45.248Z,10.00
2018-01-12T14:00:11.452Z,9.60
2018-01-12T14:02:37.540Z,10.40
2018-01-12T14:16:04.442Z,18.03
2018-01-12T14:18:30.609Z,16.70
2018-01-12T14:20:56.744Z,15.73
2018-01-12T14:23:22.910Z,15.43
2018-01-12T14:25:49.104Z,18.10
2018-01-12T14:28:15.332Z,21.20
2018-01-12T14:30:41.573Z,11.87
2018-01-12T14:33:07.748Z,10.73
2018-01-12T14:35:33.864Z,13.93
2018-01-12T14:38:00.116Z,15.70
2018-01-12T14:40:26.365Z,22.37
2018-01-12T14:42:52.592Z,15.37
2018-01-12T14:45:18.780Z,18.37
2018-01-12T14:47:45.041Z,18.10
2018-01-12T14:50:11.221Z,14.17
2018-01-12T14:52:37.453Z,13.40
2018-01-12T14:55:03.658Z,15.77
2018-01-12T14:57:29.889Z,16.80
2018-01-12T14:59:55.996Z,13.50
2018-01-12T15:02:22.224Z,11.53
2018-01-12T15:04:48.437Z,14.97
2018-01-12T15:07:14.645Z,12.37
2018-01-12T15:09:40.846Z,15.10
2018-01-12T15:12:06.980Z,14.50
2018-01-12T15:14:33.216Z,11.83
2018-01-12T15:16:59.361Z,11.10
2018-01-12T15:19:25.578Z,9.73
2018-01-12T15:21:51.736Z,12.67
2018-01-12T15:24:17.996Z,10.53
2018-01-12T15:26:44.236Z,12.40
2018-01-12T15:29:10.396Z,11.93
2018-01-12T15:31:36.589Z,16.57
2018-01-12T15:34:03.764Z,14.23
2018-01-12T15:36:29.884Z,12.90
2018-01-12T15:38:56.024Z,12.80
2018-01-12T15:41:22.144Z,17.57
2018-01-12T15:43:48.292Z,14.50
2018-01-12T15:46:14.429Z,14.80
2018-01-12T15:48:40.528Z,18.80
2018-01-12T15:51:06.802Z,18.73
2018-01-12T15:53:33.016Z,15.03
2018-01-12T15:55:59.252Z,14.20
2018-01-12T15:58:25.312Z,15.43
2018-01-12T16:00:51.472Z,15.27
2018-01-12T16:03:17.681Z,19.20
2018-01-12T16:05:43.904Z,11.30
2018-01-12T16:08:10.133Z,12.00
2018-01-12T16:10:36.302Z,10.13
2018-01-12T16:13:02.541Z,12.43
2018-01-12T16:15:28.647Z,11.93
2018-01-12T16:17:54.758Z,8.33
2018-01-12T16:20:20.942Z,13.13
2018-01-12T16:22:47.144Z,9.63
2018-01-12T16:25:13.361Z,8.43
2018-01-12T16:27:39.577Z,9.50
2018-01-12T16:30:05.665Z,11.50
2018-01-12T16:32:31.772Z,13.40
2018-01-12T16:34:57.954Z,24.83
2018-01-12T16:37:24.131Z,20.60
2018-01-12T16:39:50.282Z,11.43
2018-01-12T16:42:16.480Z,16.57
2018-01-12T16:44:42.557Z,11.40
2018-01-12T16:47:08.738Z,11.77
2018-01-12T16:49:34.969Z,14.20
2018-01-12T16:52:01.189Z,10.47
2018-01-12T16:54:27.442Z,9.87
2018-01-12T16:56:53.586Z,10.00
2018-01-12T16:59:19.759Z,8.53
2018-01-12T17:01:45.893Z,9.50
2018-01-12T17:04:12.116Z,8.10
2018-01-12T17:06:38.336Z,10.27
2018-01-12T17:09:04.408Z,7.07
2018-01-12T17:11:30.660Z,8.67
2018-01-12T17:13:57.892Z,7.57
2018-01-12T17:16:24.117Z,9.20
2018-01-12T17:18:50.264Z,7.63
2018-01-12T17:21:16.489Z,7.30
2018-01-12T17:23:43.716Z,6.57
2018-01-12T17:26:09.861Z,6.67
2018-01-12T17:28:36.023Z,7.40
2018-01-12T17:31:02.326Z,7.33
2018-01-12T17:33:29.297Z,9.03
2018-01-12T17:35:55.529Z,13.03
2018-01-12T17:38:21.721Z,12.53
2018-01-12T17:40:47.902Z,8.93
2018-01-12T17:43:13.929Z,8.93
2018-01-12T17:45:40.985Z,7.63
2018-01-12T17:48:07.147Z,9.77
2018-01-12T17:50:33.501Z,7.73
2018-01-12T17:52:59.680Z,8.93
2018-01-12T17:55:25.886Z,7.40
2018-01-12T17:57:52.104Z,6.47
2018-01-12T18:00:18.360Z,9.00
2018-01-12T18:02:44.601Z,9.43
2018-01-12T18:05:10.752Z,8.47
2018-01-12T18:07:36.895Z,9.23
2018-01-12T18:10:03.158Z,9.97
2018-01-12T18:12:29.335Z,9.13
2018-01-12T18:14:55.489Z,8.57
2018-01-12T18:17:21.697Z,8.70
2018-01-12T18:19:47.961Z,7.20
2018-01-12T18:22:14.070Z,7.50
2018-01-12T18:24:40.245Z,9.23
2018-01-12T18:27:06.386Z,8.30
2018-01-12T18:29:32.532Z,7.43
2018-01-12T18:31:58.684Z,7.87
2018-01-12T18:34:24.905Z,8.60
2018-01-12T18:36:51.005Z,7.20
2018-01-12T18:39:17.146Z,8.80
2018-01-12T18:41:43.405Z,8.23
2018-01-12T18:44:09.725Z,7.17
2018-01-12T18:46:50.704Z,8.63
2018-01-12T18:49:17.665Z,7.50
2018-01-12T18:51:43.805Z,9.50
2018-01-12T18:54:10.009Z,9.77
2018-01-12T18:56:36.185Z,7.00
2018-01-12T18:59:02.276Z,6.67
2018-01-12T19:01:28.538Z,7.80
2018-01-12T19:03:55.737Z,7.77
2018-01-12T19:06:21.875Z,8.67
2018-01-12T19:08:48.121Z,9.77
2018-01-12T19:11:14.306Z,8.93
2018-01-12T19:13:40.469Z,9.30
2018-01-12T19:16:06.640Z,8.17
2018-01-12T19:18:32.914Z,6.50
2018-01-12T19:20:59.052Z,6.90
2018-01-12T19:23:25.142Z,7.20
2018-01-12T19:25:51.306Z,5.90
2018-01-12T19:28:17.410Z,7.70
2018-01-12T19:30:43.478Z,7.47
2018-01-12T19:33:09.654Z,8.10
2018-01-12T19:35:36.072Z,9.20
2018-01-12T19:38:02.249Z,6.73
2018-01-12T19:40:28.321Z,7.20
2018-01-12T19:42:54.538Z,6.60
2018-01-12T19:45:20.676Z,5.77
2018-01-12T19:47:46.874Z,5.40
2018-01-12T19:50:13.090Z,8.33
2018-01-12T19:52:39.305Z,6.23
2018-01-12T19:55:05.326Z,5.90
2018-01-12T19:57:31.758Z,5.47
2018-01-12T19:59:57.929Z,5.80
2018-01-12T20:02:24.141Z,6.43
2018-01-12T20:04:50.290Z,4.70
2018-01-12T20:07:16.530Z,6.93
2018-01-12T20:09:42.716Z,5.83
2018-01-12T20:12:08.853Z,9.47
2018-01-12T20:14:35.073Z,9.07
2018-01-12T20:17:01.221Z,8.60
2018-01-12T20:19:27.463Z,9.07
2018-01-12T20:21:53.514Z,6.27
2018-01-12T20:24:19.649Z,4.83
2018-01-12T20:26:45.857Z,5.53
2018-01-12T20:29:12.061Z,5.30
2018-01-12T20:31:38.195Z,5.33
2018-01-12T20:34:05.212Z,5.10
2018-01-12T20:36:31.305Z,4.53
2018-01-12T20:38:57.617Z,5.17
2018-01-12T20:41:23.700Z,4.90
2018-01-12T20:43:50.912Z,6.17
2018-01-12T20:46:17.032Z,4.60
2018-01-12T20:48:43.208Z,4.63
2018-01-12T20:51:10.256Z,5.03
2018-01-12T20:53:36.351Z,4.90
2018-01-12T20:56:02.558Z,4.90
2018-01-12T20:58:28.792Z,5.30
2018-01-12T21:00:54.969Z,7.00
2018-01-12T21:03:21.076Z,4.77
2018-01-12T21:05:47.238Z,5.47
2018-01-12T21:08:13.426Z,5.67
2018-01-12T21:10:39.488Z,5.67
2018-01-12T21:13:05.692Z,4.23
2018-01-12T21:15:31.845Z,4.43
2018-01-12T21:17:58.091Z,4.27
2018-01-12T21:20:24.196Z,6.33
2018-01-12T21:22:50.359Z,5.43
2018-01-12T21:25:16.509Z,6.33
2018-01-12T21:27:42.594Z,6.80
2018-01-12T21:30:08.797Z,5.00
2018-01-12T21:32:34.908Z,5.00
2018-01-12T21:35:01.042Z,6.03
2018-01-12T21:37:27.129Z,4.90
2018-01-12T21:39:53.241Z,5.77
2018-01-12T21:42:19.392Z,7.03
2018-01-12T21:44:45.637Z,6.33
2018-01-12T21:47:11.859Z,6.60
2018-01-12T21:49:38.042Z,7.37
2018-01-12T21:52:04.245Z,5.90
2018-01-12T21:54:30.437Z,7.03
2018-01-12T21:56:56.632Z,7.37
2018-01-12T21:59:22.796Z,5.60
2018-01-12T22:01:49.980Z,6.37
2018-01-12T22:04:16.060Z,5.63
2018-01-12T22:06:42.245Z,5.20
2018-01-12T22:09:08.630Z,5.10
2018-01-12T22:11:34.729Z,5.50
2018-01-12T22:14:00.950Z,6.90
2018-01-12T22:16:27.006Z,5.93
2018-01-12T22:18:53.110Z,7.70
2018-01-12T22:21:19.395Z,5.03
2018-01-12T22:23:46.509Z,8.27
2018-01-12T22:26:12.701Z,5.77
2018-01-12T22:28:38.877Z,5.53
2018-01-12T22:31:05.096Z,5.80
2018-01-12T22:33:32.148Z,6.07
2018-01-12T22:35:58.373Z,6.50
2018-01-12T22:38:24.497Z,6.90
2018-01-12T22:40:50.569Z,7.00
2018-01-12T22:43:17.762Z,7.13
2018-01-12T22:45:43.987Z,5.30
2018-01-12T22:48:10.125Z,6.97
2018-01-12T22:50:36.460Z,6.30
2018-01-12T22:53:03.583Z,6.43
2018-01-12T22:55:29.817Z,6.77
2018-01-12T22:57:55.972Z,6.37
2018-01-12T23:00:22.184Z,8.00
2018-01-12T23:02:48.421Z,6.50
2018-01-12T23:05:14.652Z,6.50
2018-01-12T23:07:40.852Z,6.23
2018-01-12T23:10:07.017Z,6.93
2018-01-12T23:12:34.157Z,7.87
2018-01-12T23:15:00.219Z,5.47
2018-01-12T23:17:26.481Z,6.40
2018-01-12T23:19:52.717Z,6.67
2018-01-12T23:22:22.107Z,6.10
2018-01-12T23:24:48.589Z,6.93
2018-01-12T23:27:14.873Z,6.83
2018-01-12T23:29:41.046Z,7.27
2018-01-12T23:32:21.936Z,7.57
2018-01-12T23:34:48.132Z,6.73
2018-01-12T23:37:14.262Z,7.73
2018-01-12T23:39:40.489Z,7.47
2018-01-12T23:58:45.833Z,7.10
